createdAt,value
2023-06-09T00:00:48.966Z,94880.00
2023-06-09T00:01:49.026Z,94878.00
2023-06-09T00:02:49.170Z,94880.00
2023-06-09T00:03:49.145Z,94882.00
2023-06-09T00:04:49.158Z,94882.00
2023-06-09T00:05:49.205Z,94885.00
2023-06-09T00:06:49.262Z,94883.00
2023-06-09T00:07:49.319Z,94883.00
2023-06-09T00:08:49.386Z,94885.00
2023-06-09T00:09:49.467Z,94883.00
2023-06-09T00:10:49.496Z,94883.00
2023-06-09T00:11:49.539Z,94883.00
2023-06-09T00:12:49.597Z,94882.00
2023-06-09T00:13:49.591Z,94880.00
2023-06-09T00:14:49.656Z,94878.00
2023-06-09T00:15:49.665Z,94878.00
2023-06-09T00:16:49.738Z,94880.00
2023-06-09T00:17:49.775Z,94880.00
2023-06-09T00:18:49.741Z,94880.00
2023-06-09T00:19:49.767Z,94878.00
2023-06-09T00:20:49.807Z,94876.00
2023-06-09T00:21:49.831Z,94878.00
2023-06-09T00:22:49.852Z,94874.00
2023-06-09T00:23:49.882Z,94878.00
2023-06-09T00:24:49.912Z,94876.00
2023-06-09T00:25:49.913Z,94876.00
2023-06-09T00:26:49.917Z,94876.00
2023-06-09T00:27:49.937Z,94878.00
2023-06-09T00:28:49.989Z,94878.00
2023-06-09T00:29:49.962Z,94878.00
2023-06-09T00:30:49.989Z,94876.00
2023-06-09T00:31:50.092Z,94878.00
2023-06-09T00:32:50.090Z,94878.00
2023-06-09T00:33:50.016Z,94876.00
2023-06-09T00:34:50.029Z,94876.00
2023-06-09T00:35:50.037Z,94874.00
2023-06-09T00:36:50.065Z,94874.00
2023-06-09T00:37:50.067Z,94872.00
2023-06-09T00:38:50.088Z,94872.00
2023-06-09T00:39:50.087Z,94872.00
2023-06-09T00:40:50.088Z,94872.00
2023-06-09T00:41:50.089Z,94874.00
2023-06-09T00:42:50.136Z,94874.00
2023-06-09T00:43:50.109Z,94874.00
2023-06-09T00:44:50.129Z,94874.00
2023-06-09T00:45:50.095Z,94872.00
2023-06-09T00:46:50.189Z,94870.00
2023-06-09T00:47:50.154Z,94872.00
2023-06-09T00:48:50.114Z,94874.00
2023-06-09T00:49:50.121Z,94876.00
2023-06-09T00:50:50.105Z,94874.00
2023-06-09T00:51:50.103Z,94876.00
2023-06-09T00:52:50.166Z,94872.00
2023-06-09T00:53:50.131Z,94874.00
2023-06-09T00:54:50.134Z,94872.00
2023-06-09T00:55:50.141Z,94874.00
2023-06-09T00:56:50.176Z,94874.00
2023-06-09T00:57:50.166Z,94870.00
2023-06-09T00:58:50.165Z,94870.00
2023-06-09T00:59:50.163Z,94868.00
2023-06-09T01:00:50.237Z,94868.00
2023-06-09T01:01:50.166Z,94868.00
2023-06-09T01:02:50.285Z,94870.00
2023-06-09T01:03:50.329Z,94870.00
2023-06-09T01:04:50.179Z,94874.00
2023-06-09T01:05:50.182Z,94872.00
2023-06-09T01:06:50.178Z,94870.00
2023-06-09T01:07:50.175Z,94872.00
2023-06-09T01:08:50.176Z,94872.00
2023-06-09T01:09:50.177Z,94872.00
2023-06-09T01:10:50.191Z,94874.00
2023-06-09T01:11:50.191Z,94872.00
2023-06-09T01:12:50.194Z,94870.00
2023-06-09T01:13:50.181Z,94870.00
2023-06-09T01:14:50.178Z,94868.00
2023-06-09T01:15:50.195Z,94870.00
2023-06-09T01:16:50.317Z,94868.00
2023-06-09T01:17:50.233Z,94872.00
2023-06-09T01:18:50.186Z,94868.00
2023-06-09T01:19:50.185Z,94868.00
2023-06-09T01:20:50.237Z,94870.00
2023-06-09T01:21:50.184Z,94868.00
2023-06-09T01:22:50.204Z,94866.00
2023-06-09T01:23:50.280Z,94868.00
2023-06-09T01:24:50.194Z,94868.00
2023-06-09T01:25:50.209Z,94866.00
2023-06-09T01:26:50.199Z,94866.00
2023-06-09T01:27:50.226Z,94864.00
2023-06-09T01:28:50.204Z,94864.00
2023-06-09T01:29:50.207Z,94866.00
2023-06-09T01:30:50.357Z,94864.00
2023-06-09T01:31:50.259Z,94864.00
2023-06-09T01:32:50.268Z,94868.00
2023-06-09T01:33:50.207Z,94866.00
2023-06-09T01:34:50.213Z,94866.00
2023-06-09T01:35:50.215Z,94866.00
2023-06-09T01:36:50.212Z,94868.00
2023-06-09T01:37:50.241Z,94870.00
2023-06-09T01:38:50.221Z,94868.00
2023-06-09T01:39:50.225Z,94870.00
2023-06-09T01:40:50.228Z,94868.00
2023-06-09T01:41:50.283Z,94868.00
2023-06-09T01:42:50.240Z,94866.00
2023-06-09T01:43:50.226Z,94870.00
2023-06-09T01:44:50.256Z,94868.00
2023-06-09T01:45:50.268Z,94874.00
2023-06-09T01:46:50.243Z,94872.00
2023-06-09T01:47:50.263Z,94868.00
2023-06-09T01:48:50.274Z,94870.00
2023-06-09T01:49:50.250Z,94870.00
2023-06-09T01:50:50.257Z,94868.00
2023-06-09T01:51:50.253Z,94870.00
2023-06-09T01:52:50.260Z,94868.00
2023-06-09T01:53:50.266Z,94870.00
2023-06-09T01:54:50.262Z,94868.00
2023-06-09T01:55:50.269Z,94868.00
2023-06-09T01:56:50.285Z,94868.00
2023-06-09T01:57:50.280Z,94870.00
2023-06-09T01:58:50.278Z,94864.00
2023-06-09T01:59:50.298Z,94866.00
2023-06-09T02:00:50.302Z,94864.00
2023-06-09T02:01:50.366Z,94866.00
2023-06-09T02:02:50.408Z,94864.00
2023-06-09T02:03:50.321Z,94862.00
2023-06-09T02:04:51.140Z,94868.00
2023-06-09T02:05:50.309Z,94864.00
2023-06-09T02:06:50.389Z,94864.00
2023-06-09T02:07:50.318Z,94866.00
2023-06-09T02:08:50.318Z,94864.00
2023-06-09T02:09:50.333Z,94866.00
2023-06-09T02:10:50.344Z,94866.00
2023-06-09T02:11:50.343Z,94866.00
2023-06-09T02:12:50.352Z,94866.00
2023-06-09T02:13:50.362Z,94866.00
2023-06-09T02:14:50.364Z,94864.00
2023-06-09T02:15:50.387Z,94858.00
2023-06-09T02:16:50.405Z,94864.00
2023-06-09T02:17:50.437Z,94860.00
2023-06-09T02:18:50.404Z,94860.00
2023-06-09T02:19:50.368Z,94864.00
2023-06-09T02:20:50.434Z,94864.00
2023-06-09T02:21:50.373Z,94866.00
2023-06-09T02:22:50.390Z,94864.00
2023-06-09T02:23:50.427Z,94866.00
2023-06-09T02:24:50.392Z,94866.00
2023-06-09T02:25:50.380Z,94868.00
2023-06-09T02:26:50.367Z,94868.00
2023-06-09T02:27:50.376Z,94872.00
2023-06-09T02:28:50.374Z,94872.00
2023-06-09T02:29:50.389Z,94872.00
2023-06-09T02:30:50.403Z,94874.00
2023-06-09T02:31:50.402Z,94874.00
2023-06-09T02:32:50.450Z,94872.00
2023-06-09T02:33:50.394Z,94878.00
2023-06-09T02:34:50.378Z,94872.00
2023-06-09T02:35:50.403Z,94874.00
2023-06-09T02:36:50.477Z,94872.00
2023-06-09T02:37:50.379Z,94874.00
2023-06-09T02:38:50.375Z,94874.00
2023-06-09T02:39:50.408Z,94874.00
2023-06-09T02:40:50.395Z,94874.00
2023-06-09T02:41:50.396Z,94876.00
2023-06-09T02:42:50.385Z,94874.00
2023-06-09T02:43:50.393Z,94874.00
2023-06-09T02:44:50.392Z,94874.00
2023-06-09T02:45:50.428Z,94874.00
2023-06-09T02:46:50.377Z,94876.00
2023-06-09T02:47:50.506Z,94878.00
2023-06-09T02:48:50.396Z,94878.00
2023-06-09T02:49:50.393Z,94878.00
2023-06-09T02:50:50.438Z,94880.00
2023-06-09T02:51:50.385Z,94880.00
2023-06-09T02:52:50.467Z,94880.00
2023-06-09T02:53:50.379Z,94880.00
2023-06-09T02:54:50.378Z,94880.00
2023-06-09T02:55:50.388Z,94883.00
2023-06-09T02:56:50.384Z,94882.00
2023-06-09T02:57:50.385Z,94883.00
2023-06-09T02:58:50.385Z,94883.00
2023-06-09T02:59:50.394Z,94882.00
2023-06-09T03:00:50.491Z,94882.00
2023-06-09T03:01:50.402Z,94883.00
2023-06-09T03:02:50.484Z,94883.00
2023-06-09T03:03:50.462Z,94885.00
2023-06-09T03:04:50.388Z,94883.00
2023-06-09T03:05:50.379Z,94883.00
2023-06-09T03:06:50.379Z,94882.00
2023-06-09T03:07:50.387Z,94885.00
2023-06-09T03:08:50.399Z,94883.00
2023-06-09T03:09:50.370Z,94883.00
2023-06-09T03:10:50.411Z,94883.00
2023-06-09T03:11:50.381Z,94887.00
2023-06-09T03:12:50.377Z,94885.00
2023-06-09T03:13:50.374Z,94887.00
2023-06-09T03:14:50.367Z,94887.00
2023-06-09T03:15:50.379Z,94889.00
2023-06-09T03:16:50.420Z,94885.00
2023-06-09T03:17:50.391Z,94885.00
2023-06-09T03:18:50.377Z,94887.00
2023-06-09T03:19:50.389Z,94889.00
2023-06-09T03:20:50.368Z,94887.00
2023-06-09T03:21:50.373Z,94887.00
2023-06-09T03:22:50.359Z,94889.00
2023-06-09T03:23:50.424Z,94889.00
2023-06-09T03:24:50.383Z,94885.00
2023-06-09T03:25:50.362Z,94889.00
2023-06-09T03:26:50.360Z,94889.00
2023-06-09T03:27:50.349Z,94899.00
2023-06-09T03:28:50.348Z,94897.00
2023-06-09T03:29:50.357Z,94901.00
2023-06-09T03:30:50.445Z,94899.00
2023-06-09T03:31:50.354Z,94899.00
2023-06-09T03:32:50.366Z,94899.00
2023-06-09T03:33:50.361Z,94901.00
2023-06-09T03:34:50.358Z,94903.00
2023-06-09T03:35:50.362Z,94903.00
2023-06-09T03:36:50.377Z,94903.00
2023-06-09T03:37:50.370Z,94905.00
2023-06-09T03:38:50.375Z,94905.00
2023-06-09T03:39:50.375Z,94905.00
2023-06-09T03:40:50.408Z,94905.00
2023-06-09T03:41:50.377Z,94903.00
2023-06-09T03:42:50.366Z,94903.00
2023-06-09T03:43:50.384Z,94903.00
2023-06-09T03:44:50.372Z,94901.00
2023-06-09T03:45:50.378Z,94903.00
2023-06-09T03:46:50.398Z,94903.00
2023-06-09T03:47:50.397Z,94903.00
2023-06-09T03:48:50.371Z,94905.00
2023-06-09T03:49:50.363Z,94903.00
2023-06-09T03:50:50.382Z,94903.00
2023-06-09T03:51:50.366Z,94905.00
2023-06-09T03:52:50.368Z,94903.00
2023-06-09T03:53:50.391Z,94907.00
2023-06-09T03:54:50.374Z,94907.00
2023-06-09T03:55:50.373Z,94907.00
2023-06-09T03:56:50.405Z,94907.00
2023-06-09T03:57:50.374Z,94909.00
2023-06-09T03:58:50.395Z,94911.00
2023-06-09T03:59:50.395Z,94911.00
2023-06-09T04:00:50.399Z,94911.00
2023-06-09T04:01:50.414Z,94911.00
2023-06-09T04:02:50.381Z,94913.00
2023-06-09T04:03:50.402Z,94909.00
2023-06-09T04:04:50.372Z,94913.00
2023-06-09T04:05:50.377Z,94913.00
2023-06-09T04:06:50.379Z,94915.00
2023-06-09T04:07:50.362Z,94915.00
2023-06-09T04:08:50.364Z,94917.00
2023-06-09T04:09:50.364Z,94915.00
2023-06-09T04:10:50.367Z,94915.00
2023-06-09T04:11:50.363Z,94917.00
2023-06-09T04:12:50.382Z,94919.00
2023-06-09T04:13:50.351Z,94919.00
2023-06-09T04:14:50.352Z,94917.00
2023-06-09T04:15:50.363Z,94917.00
2023-06-09T04:16:50.429Z,94915.00
2023-06-09T04:17:50.391Z,94913.00
2023-06-09T04:18:50.358Z,94915.00
2023-06-09T04:19:50.352Z,94915.00
2023-06-09T04:20:50.359Z,94915.00
2023-06-09T04:21:50.354Z,94917.00
2023-06-09T04:22:50.355Z,94915.00
2023-06-09T04:23:50.397Z,94915.00
2023-06-09T04:24:50.357Z,94913.00
2023-06-09T04:25:50.365Z,94917.00
2023-06-09T04:26:50.357Z,94915.00
2023-06-09T04:27:50.359Z,94913.00
2023-06-09T04:28:50.387Z,94911.00
2023-06-09T04:29:50.364Z,94911.00
2023-06-09T04:30:50.358Z,94909.00
2023-06-09T04:31:50.403Z,94909.00
2023-06-09T04:32:50.457Z,94909.00
2023-06-09T04:33:50.365Z,94909.00
2023-06-09T04:34:50.377Z,94909.00
2023-06-09T04:35:50.374Z,94909.00
2023-06-09T04:36:50.376Z,94909.00
2023-06-09T04:37:50.372Z,94909.00
2023-06-09T04:38:50.360Z,94913.00
2023-06-09T04:39:50.360Z,94909.00
2023-06-09T04:40:50.369Z,94909.00
2023-06-09T04:41:50.370Z,94909.00
2023-06-09T04:42:50.349Z,94909.00
2023-06-09T04:43:50.354Z,94911.00
2023-06-09T04:44:50.389Z,94911.00
2023-06-09T04:45:50.357Z,94911.00
2023-06-09T04:46:50.451Z,94913.00
2023-06-09T04:47:50.388Z,94915.00
2023-06-09T04:48:50.355Z,94913.00
2023-06-09T04:49:50.354Z,94915.00
2023-06-09T04:50:50.347Z,94915.00
2023-06-09T04:51:50.351Z,94915.00
2023-06-09T04:52:50.352Z,94917.00
2023-06-09T04:53:50.352Z,94917.00
2023-06-09T04:54:50.346Z,94917.00
2023-06-09T04:55:50.352Z,94919.00
2023-06-09T04:56:50.366Z,94919.00
2023-06-09T04:57:50.348Z,94921.00
2023-06-09T04:58:50.352Z,94923.00
2023-06-09T04:59:50.358Z,94925.00
2023-06-09T05:00:50.407Z,94927.00
2023-06-09T05:01:50.415Z,94927.00
2023-06-09T05:02:50.379Z,94931.00
2023-06-09T05:03:50.362Z,94929.00
2023-06-09T05:04:50.390Z,94931.00
2023-06-09T05:05:50.354Z,94931.00
2023-06-09T05:06:50.356Z,94933.00
2023-06-09T05:07:50.356Z,94931.00
2023-06-09T05:08:50.349Z,94931.00
2023-06-09T05:09:50.357Z,94931.00
2023-06-09T05:10:50.354Z,94931.00
2023-06-09T05:11:50.349Z,94929.00
2023-06-09T05:12:50.356Z,94929.00
2023-06-09T05:13:50.352Z,94929.00
2023-06-09T05:14:50.351Z,94929.00
2023-06-09T05:15:50.392Z,94929.00
2023-06-09T05:16:50.511Z,94929.00
2023-06-09T05:17:50.419Z,94929.00
2023-06-09T05:18:50.357Z,94929.00
2023-06-09T05:19:50.362Z,94931.00
2023-06-09T05:20:50.358Z,94931.00
2023-06-09T05:21:50.364Z,94933.00
2023-06-09T05:22:50.385Z,94933.00
2023-06-09T05:23:50.417Z,94933.00
2023-06-09T05:24:50.375Z,94935.00
2023-06-09T05:25:50.377Z,94935.00
2023-06-09T05:26:50.369Z,94938.00
2023-06-09T05:27:50.367Z,94938.00
2023-06-09T05:28:50.382Z,94940.00
2023-06-09T05:29:50.364Z,94938.00
2023-06-09T05:30:50.383Z,94946.00
2023-06-09T05:31:50.441Z,94948.00
2023-06-09T05:32:50.500Z,94948.00
2023-06-09T05:33:50.380Z,94950.00
2023-06-09T05:34:50.378Z,94950.00
2023-06-09T05:35:50.389Z,94952.00
2023-06-09T05:36:50.361Z,94952.00
2023-06-09T05:37:50.366Z,94952.00
2023-06-09T05:38:50.422Z,94952.00
2023-06-09T05:39:50.369Z,94952.00
2023-06-09T05:40:50.369Z,94950.00
2023-06-09T05:41:50.367Z,94952.00
2023-06-09T05:42:50.388Z,94950.00
2023-06-09T05:43:50.374Z,94948.00
2023-06-09T05:44:50.374Z,94946.00
2023-06-09T05:45:50.448Z,94946.00
2023-06-09T05:46:50.372Z,94940.00
2023-06-09T05:47:50.463Z,94940.00
2023-06-09T05:48:50.460Z,94940.00
2023-06-09T05:49:50.378Z,94938.00
2023-06-09T05:50:50.374Z,94938.00
2023-06-09T05:51:50.386Z,94936.00
2023-06-09T05:52:50.384Z,94936.00
2023-06-09T05:53:50.371Z,94935.00
2023-06-09T05:54:50.369Z,94933.00
2023-06-09T05:55:50.390Z,94933.00
2023-06-09T05:56:50.432Z,94931.00
2023-06-09T05:57:50.400Z,94933.00
2023-06-09T05:58:50.376Z,94929.00
2023-06-09T05:59:50.382Z,94931.00
2023-06-09T06:00:50.378Z,94927.00
2023-06-09T06:01:50.404Z,94931.00
2023-06-09T06:02:50.520Z,94931.00
2023-06-09T06:03:50.428Z,94929.00
2023-06-09T06:04:50.438Z,94927.00
2023-06-09T06:05:50.396Z,94927.00
2023-06-09T06:06:50.390Z,94929.00
2023-06-09T06:07:50.402Z,94927.00
2023-06-09T06:08:50.388Z,94927.00
2023-06-09T06:09:50.408Z,94927.00
2023-06-09T06:10:50.389Z,94927.00
2023-06-09T06:11:50.381Z,94927.00
2023-06-09T06:12:50.387Z,94929.00
2023-06-09T06:13:50.394Z,94929.00
2023-06-09T06:14:50.415Z,94931.00
2023-06-09T06:15:50.467Z,94929.00
2023-06-09T06:16:50.400Z,94927.00
2023-06-09T06:17:50.544Z,94931.00
2023-06-09T06:18:50.431Z,94929.00
2023-06-09T06:19:50.422Z,94925.00
2023-06-09T06:20:50.418Z,94925.00
2023-06-09T06:21:50.421Z,94923.00
2023-06-09T06:22:50.435Z,94923.00
2023-06-09T06:23:50.491Z,94921.00
2023-06-09T06:24:50.438Z,94923.00
2023-06-09T06:25:50.405Z,94919.00
2023-06-09T06:26:50.414Z,94921.00
2023-06-09T06:27:50.396Z,94917.00
2023-06-09T06:28:50.419Z,94919.00
2023-06-09T06:29:50.429Z,94921.00
2023-06-09T06:30:50.418Z,94921.00
2023-06-09T06:31:50.437Z,94921.00
2023-06-09T06:32:50.452Z,94921.00
2023-06-09T06:33:50.422Z,94921.00
2023-06-09T06:34:50.420Z,94921.00
2023-06-09T06:35:50.426Z,94919.00
2023-06-09T06:36:50.456Z,94919.00
2023-06-09T06:37:50.428Z,94923.00
2023-06-09T06:38:50.434Z,94921.00
2023-06-09T06:39:50.436Z,94921.00
2023-06-09T06:40:50.454Z,94921.00
2023-06-09T06:41:50.437Z,94921.00
2023-06-09T06:42:50.448Z,94919.00
2023-06-09T06:43:50.435Z,94917.00
2023-06-09T06:44:50.453Z,94919.00
2023-06-09T06:45:50.462Z,94919.00
2023-06-09T06:46:50.557Z,94919.00
2023-06-09T06:47:50.492Z,94919.00
2023-06-09T06:48:50.459Z,94921.00
2023-06-09T06:49:50.458Z,94917.00
2023-06-09T06:50:50.469Z,94919.00
2023-06-09T06:51:50.470Z,94917.00
2023-06-09T06:52:50.502Z,94915.00
2023-06-09T06:53:50.466Z,94917.00
2023-06-09T06:54:50.510Z,94917.00
2023-06-09T06:55:50.474Z,94915.00
2023-06-09T06:56:50.485Z,94917.00
2023-06-09T06:57:50.468Z,94917.00
2023-06-09T06:58:50.488Z,94915.00
2023-06-09T06:59:50.480Z,94915.00
2023-06-09T07:00:50.501Z,94915.00
2023-06-09T07:01:50.462Z,94917.00
2023-06-09T07:02:50.539Z,94915.00
2023-06-09T07:03:50.494Z,94917.00
2023-06-09T07:04:50.460Z,94915.00
2023-06-09T07:05:50.473Z,94917.00
2023-06-09T07:06:50.462Z,94915.00
2023-06-09T07:07:50.461Z,94915.00
2023-06-09T07:08:50.482Z,94915.00
2023-06-09T07:09:50.469Z,94915.00
2023-06-09T07:10:50.456Z,94911.00
2023-06-09T07:11:50.455Z,94911.00
2023-06-09T07:12:50.490Z,94907.00
2023-06-09T07:13:50.456Z,94909.00
2023-06-09T07:14:50.460Z,94909.00
2023-06-09T07:15:50.479Z,94907.00
2023-06-09T07:16:50.470Z,94909.00
2023-06-09T07:17:50.571Z,94911.00
2023-06-09T07:18:50.537Z,94911.00
2023-06-09T07:19:50.451Z,94911.00
2023-06-09T07:20:50.463Z,94909.00
2023-06-09T07:21:50.450Z,94909.00
2023-06-09T07:22:50.437Z,94907.00
2023-06-09T07:23:50.467Z,94905.00
2023-06-09T07:24:50.456Z,94905.00
2023-06-09T07:25:50.429Z,94903.00
2023-06-09T07:26:52.067Z,94903.00
2023-06-09T07:27:50.415Z,94905.00
2023-06-09T07:28:50.458Z,94903.00
2023-06-09T07:29:50.401Z,94899.00
2023-06-09T07:30:50.403Z,94901.00
2023-06-09T07:31:50.436Z,94899.00
2023-06-09T07:32:50.412Z,94899.00
2023-06-09T07:33:50.380Z,94897.00
2023-06-09T07:34:50.491Z,94889.00
2023-06-09T07:35:50.629Z,94889.00
2023-06-09T07:36:50.352Z,94887.00
2023-06-09T07:37:50.375Z,94885.00
2023-06-09T07:38:50.350Z,94887.00
2023-06-09T07:39:52.227Z,94883.00
2023-06-09T07:40:50.380Z,94883.00
2023-06-09T07:41:50.321Z,94880.00
2023-06-09T07:42:50.581Z,94883.00
2023-06-09T07:43:50.310Z,94885.00
2023-06-09T07:44:50.310Z,94885.00
2023-06-09T07:45:50.354Z,94885.00
2023-06-09T07:46:50.292Z,94883.00
2023-06-09T07:47:50.384Z,94883.00
2023-06-09T07:48:50.281Z,94882.00
2023-06-09T07:49:50.288Z,94882.00
2023-06-09T07:50:59.962Z,94882.00
2023-06-09T07:51:50.266Z,94880.00
2023-06-09T07:52:50.259Z,94880.00
2023-06-09T07:53:50.269Z,94874.00
2023-06-09T07:54:50.243Z,94874.00
2023-06-09T07:55:50.240Z,94872.00
2023-06-09T07:56:50.261Z,94876.00
2023-06-09T07:57:50.228Z,94874.00
2023-06-09T07:58:50.220Z,94872.00
2023-06-09T07:59:50.217Z,94872.00
2023-06-09T08:00:50.214Z,94868.00
2023-06-09T08:01:50.201Z,94866.00
2023-06-09T08:02:50.243Z,94866.00
2023-06-09T08:03:50.240Z,94862.00
2023-06-09T08:04:50.289Z,94862.00
2023-06-09T08:05:50.172Z,94858.00
2023-06-09T08:06:50.160Z,94860.00
2023-06-09T08:07:50.152Z,94858.00
2023-06-09T08:08:50.144Z,94862.00
2023-06-09T08:09:50.152Z,94860.00
2023-06-09T08:10:50.138Z,94862.00
2023-06-09T08:11:50.130Z,94860.00
2023-06-09T08:12:50.157Z,94858.00
2023-06-09T08:13:50.117Z,94858.00
2023-06-09T08:14:50.134Z,94856.00
2023-06-09T08:15:50.129Z,94856.00
2023-06-09T08:16:50.110Z,94854.00
2023-06-09T08:17:50.144Z,94852.00
2023-06-09T08:18:50.092Z,94850.00
2023-06-09T08:19:50.084Z,94848.00
2023-06-09T08:20:50.077Z,94848.00
2023-06-09T08:21:50.072Z,94848.00
2023-06-09T08:22:50.079Z,94846.00
2023-06-09T08:23:50.127Z,94844.00
2023-06-09T08:24:50.155Z,94842.00
2023-06-09T08:25:50.255Z,94842.00
2023-06-09T08:26:50.257Z,94840.00
2023-06-09T08:27:50.310Z,94840.00
2023-06-09T08:28:50.399Z,94846.00
2023-06-09T08:29:50.436Z,94844.00
2023-06-09T08:30:50.472Z,94844.00
2023-06-09T08:31:50.579Z,94840.00
2023-06-09T08:32:50.614Z,94840.00
2023-06-09T08:33:50.641Z,94838.00
2023-06-09T08:34:50.686Z,94836.00
2023-06-09T08:35:50.743Z,94836.00
2023-06-09T08:36:50.804Z,94835.00
2023-06-09T08:37:50.943Z,94835.00
2023-06-09T08:38:50.913Z,94833.00
2023-06-09T08:39:50.962Z,94831.00
2023-06-09T08:40:51.012Z,94829.00
2023-06-09T08:41:51.087Z,94825.00
2023-06-09T08:42:51.138Z,94825.00
2023-06-09T08:43:51.209Z,94827.00
2023-06-09T08:44:51.290Z,94825.00
2023-06-09T08:45:51.400Z,94823.00
2023-06-09T08:46:51.403Z,94819.00
2023-06-09T08:47:51.468Z,94817.00
2023-06-09T08:48:51.507Z,94819.00
2023-06-09T08:49:51.604Z,94817.00
2023-06-09T08:50:51.618Z,94817.00
2023-06-09T08:51:51.674Z,94819.00
2023-06-09T08:52:51.743Z,94817.00
2023-06-09T08:53:51.793Z,94813.00
2023-06-09T08:54:51.859Z,94813.00
2023-06-09T08:55:51.905Z,94813.00
2023-06-09T08:56:51.980Z,94813.00
2023-06-09T08:57:52.640Z,94811.00
2023-06-09T08:58:52.094Z,94809.00
2023-06-09T08:59:52.159Z,94805.00
2023-06-09T09:00:52.238Z,94805.00
2023-06-09T09:01:52.262Z,94803.00
2023-06-09T09:02:52.337Z,94801.00
2023-06-09T09:03:52.410Z,94797.00
2023-06-09T09:04:52.411Z,94797.00
2023-06-09T09:05:52.491Z,94795.00
2023-06-09T09:06:52.521Z,94795.00
2023-06-09T09:07:52.578Z,94793.00
2023-06-09T09:08:52.705Z,94795.00
2023-06-09T09:09:52.702Z,94793.00
2023-06-09T09:10:52.827Z,94791.00
2023-06-09T09:11:52.826Z,94791.00
2023-06-09T09:12:52.988Z,94789.00
2023-06-09T09:13:53.040Z,94789.00
2023-06-09T09:14:53.013Z,94789.00
2023-06-09T09:15:53.086Z,94791.00
2023-06-09T09:16:53.144Z,94791.00
2023-06-09T09:17:53.232Z,94789.00
2023-06-09T09:18:53.234Z,94788.00
2023-06-09T09:19:53.293Z,94788.00
2023-06-09T09:20:53.359Z,94789.00
2023-06-09T09:21:53.399Z,94786.00
2023-06-09T09:22:53.467Z,94786.00
2023-06-09T09:23:53.564Z,94786.00
2023-06-09T09:24:53.657Z,94784.00
2023-06-09T09:25:53.721Z,94786.00
2023-06-09T09:26:53.706Z,94784.00
2023-06-09T09:27:53.791Z,94784.00
2023-06-09T09:28:53.819Z,94782.00
2023-06-09T09:29:53.878Z,94780.00
2023-06-09T09:30:54.002Z,94778.00
2023-06-09T09:31:54.070Z,94778.00
2023-06-09T09:32:54.132Z,94778.00
2023-06-09T09:33:54.113Z,94776.00
2023-06-09T09:34:54.170Z,94776.00
2023-06-09T09:35:54.352Z,94774.00
2023-06-09T09:36:54.281Z,94772.00
2023-06-09T09:37:54.350Z,94770.00
2023-06-09T09:38:54.405Z,94768.00
2023-06-09T09:39:54.460Z,94770.00
2023-06-09T09:40:54.594Z,94768.00
2023-06-09T09:41:54.580Z,94764.00
2023-06-09T09:42:54.670Z,94762.00
2023-06-09T09:43:54.706Z,94760.00
2023-06-09T09:44:54.766Z,94756.00
2023-06-09T09:45:54.874Z,94754.00
2023-06-09T09:46:54.949Z,94756.00
2023-06-09T09:47:54.969Z,94754.00
2023-06-09T09:48:55.018Z,94750.00
2023-06-09T09:49:55.046Z,94748.00
2023-06-09T09:50:55.122Z,94746.00
2023-06-09T09:51:55.172Z,94746.00
2023-06-09T09:52:55.245Z,94746.00
2023-06-09T09:53:55.286Z,94742.00
2023-06-09T09:54:55.361Z,94739.00
2023-06-09T09:55:55.535Z,94739.00
2023-06-09T09:56:55.463Z,94737.00
2023-06-09T09:57:55.523Z,94733.00
2023-06-09T09:58:55.577Z,94735.00
2023-06-09T09:59:55.639Z,94729.00
2023-06-09T10:00:55.712Z,94731.00
2023-06-09T10:01:55.739Z,94729.00
2023-06-09T10:02:55.838Z,94727.00
2023-06-09T10:03:55.889Z,94723.00
2023-06-09T10:04:55.944Z,94725.00
2023-06-09T10:05:55.960Z,94725.00
2023-06-09T10:06:56.006Z,94725.00
2023-06-09T10:07:56.063Z,94725.00
2023-06-09T10:08:56.119Z,94723.00
2023-06-09T10:09:56.184Z,94721.00
2023-06-09T10:10:56.270Z,94721.00
2023-06-09T10:11:56.288Z,94719.00
2023-06-09T10:12:56.339Z,94715.00
2023-06-09T10:13:56.404Z,94717.00
2023-06-09T10:14:56.448Z,94715.00
2023-06-09T10:15:56.528Z,94713.00
2023-06-09T10:16:56.618Z,94713.00
2023-06-09T10:17:56.652Z,94711.00
2023-06-09T10:18:56.692Z,94709.00
2023-06-09T10:19:56.704Z,94709.00
2023-06-09T10:20:56.788Z,94711.00
2023-06-09T10:21:56.815Z,94711.00
2023-06-09T10:22:56.867Z,94707.00
2023-06-09T10:23:56.955Z,94705.00
2023-06-09T10:24:56.988Z,94707.00
2023-06-09T10:25:57.013Z,94705.00
2023-06-09T10:26:57.052Z,94707.00
2023-06-09T10:27:57.106Z,94705.00
2023-06-09T10:28:57.153Z,94705.00
2023-06-09T10:29:57.202Z,94705.00
2023-06-09T10:30:57.255Z,94705.00
2023-06-09T10:31:57.348Z,94701.00
2023-06-09T10:32:57.384Z,94701.00
2023-06-09T10:33:57.390Z,94701.00
2023-06-09T10:34:57.442Z,94699.00
2023-06-09T10:35:57.596Z,94701.00
2023-06-09T10:36:57.570Z,94695.00
2023-06-09T10:37:57.584Z,94695.00
2023-06-09T10:38:57.628Z,94695.00
2023-06-09T10:39:57.687Z,94692.00
2023-06-09T10:40:57.716Z,94692.00
2023-06-09T10:42:00.222Z,94688.00
2023-06-09T10:42:57.766Z,94690.00
2023-06-09T10:43:57.748Z,94692.00
2023-06-09T10:44:57.796Z,94690.00
2023-06-09T10:45:57.853Z,94690.00
2023-06-09T10:46:57.879Z,94686.00
2023-06-09T10:47:57.783Z,94686.00
2023-06-09T10:48:57.724Z,94682.00
2023-06-09T10:49:57.714Z,94682.00
2023-06-09T10:50:57.713Z,94684.00
2023-06-09T10:51:57.777Z,94684.00
2023-06-09T10:52:57.722Z,94680.00
2023-06-09T10:53:57.689Z,94682.00
2023-06-09T10:54:57.682Z,94678.00
2023-06-09T10:55:57.676Z,94678.00
2023-06-09T10:56:57.672Z,94678.00
2023-06-09T10:57:57.662Z,94672.00
2023-06-09T10:58:57.654Z,94674.00
2023-06-09T10:59:57.655Z,94674.00
2023-06-09T11:00:57.713Z,94670.00
2023-06-09T11:01:57.794Z,94672.00
2023-06-09T11:02:57.680Z,94666.00
2023-06-09T11:03:57.659Z,94664.00
2023-06-09T11:04:57.615Z,94662.00
2023-06-09T11:05:57.680Z,94658.00
2023-06-09T11:06:57.610Z,94656.00
2023-06-09T11:07:57.630Z,94658.00
2023-06-09T11:08:57.616Z,94654.00
2023-06-09T11:09:57.584Z,94650.00
2023-06-09T11:10:57.579Z,94652.00
2023-06-09T11:11:57.573Z,94648.00
2023-06-09T11:12:57.623Z,94650.00
2023-06-09T11:13:57.662Z,94654.00
2023-06-09T11:14:57.957Z,94650.00
2023-06-09T11:15:58.703Z,94652.00
2023-06-09T11:16:57.774Z,94654.00
2023-06-09T11:17:57.923Z,94656.00
2023-06-09T11:18:57.875Z,94654.00
2023-06-09T11:19:57.884Z,94654.00
2023-06-09T11:20:57.916Z,94652.00
2023-06-09T11:21:57.955Z,94652.00
2023-06-09T11:22:57.995Z,94658.00
2023-06-09T11:23:58.061Z,94656.00
2023-06-09T11:24:58.094Z,94652.00
2023-06-09T11:25:58.104Z,94652.00
2023-06-09T11:26:58.177Z,94652.00
2023-06-09T11:27:58.487Z,94654.00
2023-06-09T11:28:58.218Z,94648.00
2023-06-09T11:29:58.247Z,94650.00
2023-06-09T11:30:58.293Z,94646.00
2023-06-09T11:31:58.420Z,94648.00
2023-06-09T11:32:58.397Z,94642.00
2023-06-09T11:33:58.403Z,94644.00
2023-06-09T11:34:58.452Z,94642.00
2023-06-09T11:35:58.491Z,94646.00
2023-06-09T11:36:58.515Z,94642.00
2023-06-09T11:37:58.550Z,94642.00
2023-06-09T11:38:58.586Z,94640.00
2023-06-09T11:39:58.610Z,94646.00
2023-06-09T11:40:58.671Z,94642.00
2023-06-09T11:41:58.668Z,94633.00
2023-06-09T11:42:58.706Z,94633.00
2023-06-09T11:43:58.787Z,94640.00
2023-06-09T11:44:58.812Z,94631.00